Time;durP1;ratioP1;P1;durP2;ratioP2;P2;SDS_P1;SDS_P2;PMS_P1;PMS_P2;Temp;Humidity;BMP_temperature;BMP_pressure;BME280_temperature;BME280_humidity;BME280_pressure;Samples;Min_cycle;Max_cycle;Signal;HPM_P1;HPM_P2
2021/04/23 05:00:49;;;;;;;8.13;5.95;;;;;;;7.53;83.51;100145.70;1843233;77;22409;-60
2021/04/23 05:03:18;;;;;;;9.70;6.30;;;;;;;7.41;83.11;100152.22;1808980;79;20936;-61
2021/04/23 05:05:47;;;;;;;9.13;6.85;;;;;;;7.35;82.73;100154.61;1787830;79;22305;-63
2021/04/23 05:08:15;;;;;;;10.90;7.37;;;;;;;7.31;82.35;100156.93;1797892;79;21838;-63
2021/04/23 05:10:44;;;;;;;7.12;6.00;;;;;;;7.28;82.49;100157.50;1791711;79;21614;-62
2021/04/23 05:13:13;;;;;;;6.83;5.25;;;;;;;7.29;82.46;100166.96;1805646;79;21696;-61
2021/04/23 05:15:41;;;;;;;7.50;5.45;;;;;;;7.30;82.39;100173.38;1797376;79;21570;-59
2021/04/23 05:18:11;;;;;;;8.08;5.80;;;;;;;7.33;81.80;100182.31;1798753;79;21859;-62
2021/04/23 05:20:39;;;;;;;7.40;5.78;;;;;;;7.33;81.52;100179.73;1795314;79;21487;-60
2021/04/23 05:23:08;;;;;;;9.65;5.25;;;;;;;7.34;81.55;100185.75;1794257;79;20929;-65
2021/04/23 05:25:37;;;;;;;7.17;5.55;;;;;;;7.34;81.40;100185.30;1791522;79;21519;-60
2021/04/23 05:28:08;;;;;;;13.03;7.50;;;;;;;7.34;81.64;100187.05;1808358;79;20932;-70
2021/04/23 05:30:38;;;;;;;9.05;5.95;;;;;;;7.31;81.80;100191.05;1806530;79;21188;-59
2021/04/23 05:33:08;;;;;;;7.75;5.35;;;;;;;7.28;81.85;100185.55;1791218;79;21668;-59
2021/04/23 05:35:39;;;;;;;6.70;5.67;;;;;;;7.28;81.56;100187.29;1732024;82;20996;-63
2021/04/23 05:38:07;;;;;;;7.33;5.28;;;;;;;7.26;81.41;100193.83;1748025;81;21576;-63
2021/04/23 05:40:45;;;;;;;5.80;5.00;;;;;;;7.27;81.56;100202.44;1734306;81;21009;-65
2021/04/23 05:43:14;;;;;;;6.00;4.87;;;;;;;7.23;81.92;100199.58;1743150;81;21373;-64
2021/04/23 05:45:44;;;;;;;8.13;4.70;;;;;;;7.21;82.16;100210.00;1741792;81;21076;-59
2021/04/23 05:48:15;;;;;;;5.78;5.03;;;;;;;7.19;82.41;100207.11;1732388;81;21084;-59
2021/04/23 05:50:45;;;;;;;5.55;4.83;;;;;;;7.19;82.21;100209.25;1755009;81;21017;-60
2021/04/23 05:53:14;;;;;;;5.92;4.70;;;;;;;7.19;82.04;100209.70;1753671;81;21579;-62
2021/04/23 05:55:42;;;;;;;6.53;4.85;;;;;;;7.18;81.78;100211.44;1742992;81;22215;-59
2021/04/23 05:58:11;;;;;;;8.30;4.75;;;;;;;7.17;82.05;100216.23;1734074;81;21606;-59
2021/04/23 06:00:42;;;;;;;7.35;4.03;;;;;;;7.17;82.18;100216.23;1734081;81;21552;-59
2021/04/23 06:03:12;;;;;;;6.70;4.40;;;;;;;7.17;81.49;100221.86;1694156;83;21043;-59
2021/04/23 06:05:41;;;;;;;11.45;4.35;;;;;;;7.17;81.55;100220.56;1783900;79;21024;-66
2021/04/23 06:08:12;;;;;;;4.85;4.22;;;;;;;7.20;81.65;100221.71;1790171;79;22081;-66
2021/04/23 06:10:46;;;;;;;5.97;4.22;;;;;;;7.24;82.11;100217.64;1792620;79;21571;-62
2021/04/23 06:13:15;;;;;;;6.70;4.25;;;;;;;7.32;82.10;100227.71;1695028;83;22501;-63
2021/04/23 06:15:44;;;;;;;7.42;4.67;;;;;;;7.38;82.48;100222.29;1789211;79;21562;-60
2021/04/23 06:18:12;;;;;;;8.95;5.17;;;;;;;7.44;82.17;100222.50;1717152;83;21644;-62
2021/04/23 06:20:42;;;;;;;5.85;4.00;;;;;;;7.47;82.35;100228.41;1769906;81;22226;-59
2021/04/23 06:23:12;;;;;;;4.50;3.83;;;;;;;7.54;82.29;100231.59;1785441;79;21071;-62
2021/04/23 06:25:40;;;;;;;6.22;4.08;;;;;;;7.61;82.27;100231.26;1781875;79;22161;-65
2021/04/23 06:28:10;;;;;;;6.03;3.90;;;;;;;7.72;82.52;100226.94;1799086;79;20985;-65
2021/04/23 06:30:39;;;;;;;7.17;3.92;;;;;;;7.86;82.16;100230.27;1792899;79;21056;-67
2021/04/23 06:33:17;;;;;;;6.75;4.28;;;;;;;8.00;81.77;100231.34;1801258;79;21352;-63
2021/04/23 06:35:46;;;;;;;5.53;3.40;;;;;;;8.15;81.27;100221.23;1769015;81;21661;-62
2021/04/23 06:38:16;;;;;;;5.08;3.40;;;;;;;8.24;79.79;100220.39;1769847;79;20973;-63
2021/04/23 06:40:44;;;;;;;3.62;3.33;;;;;;;8.32;78.42;100227.42;1770315;79;21617;-67
2021/04/23 06:43:13;;;;;;;6.25;3.90;;;;;;;8.40;77.89;100230.14;1793454;79;21439;-66
2021/04/23 06:45:44;;;;;;;4.05;3.55;;;;;;;8.50;78.29;100237.42;1790556;79;21182;-65
2021/04/23 06:48:14;;;;;;;5.47;3.10;;;;;;;8.60;77.17;100228.33;1769847;81;21560;-61
2021/04/23 06:50:43;;;;;;;4.47;3.30;;;;;;;8.72;76.43;100232.12;1712085;83;21031;-60
2021/04/23 06:53:12;;;;;;;5.47;3.02;;;;;;;8.85;76.38;100237.13;1689249;84;21607;-61
2021/04/23 06:55:43;;;;;;;5.90;3.30;;;;;;;9.00;76.30;100236.89;1688561;84;21494;-62
2021/04/23 06:58:12;;;;;;;6.20;3.65;;;;;;;9.14;76.40;100239.70;1768717;81;22139;-62
2021/04/23 07:00:42;;;;;;;7.72;4.15;;;;;;;9.30;75.68;100237.19;1772770;79;21053;-62
2021/04/23 07:03:12;;;;;;;5.25;4.37;;;;;;;9.41;73.54;100236.23;1775467;79;21159;-60
2021/04/23 07:05:42;;;;;;;5.95;3.67;;;;;;;9.44;73.55;100236.09;1725546;83;21611;-65
2021/04/23 07:08:13;;;;;;;5.37;3.45;;;;;;;9.45;73.45;100235.17;1738575;82;21037;-62
2021/04/23 07:10:41;;;;;;;5.95;3.58;;;;;;;9.47;72.98;100237.23;1794988;79;22346;-59
2021/04/23 07:13:10;;;;;;;5.10;3.27;;;;;;;9.45;72.29;100227.83;1714717;83;21686;-60
2021/04/23 07:15:39;;;;;;;4.05;3.60;;;;;;;9.44;72.27;100233.95;1736924;82;21547;-60
2021/04/23 07:18:08;;;;;;;4.85;4.25;;;;;;;9.46;72.45;100235.55;1796266;79;21578;-60
2021/04/23 07:20:39;;;;;;;11.12;6.55;;;;;;;9.46;72.21;100230.36;1795921;79;21076;-61
2021/04/23 07:23:08;;;;;;;12.88;6.85;;;;;;;9.45;71.50;100228.67;1791670;79;21343;-60
2021/04/23 07:25:37;;;;;;;9.80;5.78;;;;;;;9.40;71.34;100233.70;1787365;79;21535;-63
2021/04/23 07:28:06;;;;;;;8.70;5.92;;;;;;;9.34;70.82;100233.53;1769312;81;21574;-60
2021/04/23 07:30:36;;;;;;;6.50;4.80;;;;;;;9.28;70.74;100229.47;1769203;80;20993;-62
2021/04/23 07:33:06;;;;;;;8.30;4.83;;;;;;;9.24;70.85;100230.53;1778147;79;21059;-65
2021/04/23 07:35:35;;;;;;;7.83;5.67;;;;;;;9.26;71.25;100233.90;1729777;83;21439;-68
2021/04/23 07:38:04;;;;;;;4.65;4.22;;;;;;;9.30;70.46;100225.50;1722726;82;21025;-65
2021/04/23 07:40:33;;;;;;;7.00;4.08;;;;;;;9.26;69.90;100227.86;1782238;79;21591;-62
2021/04/23 07:43:02;;;;;;;6.47;3.98;;;;;;;9.20;69.55;100234.19;1717115;83;21483;-59
2021/04/23 07:45:33;;;;;;;5.20;3.30;;;;;;;9.18;69.25;100234.74;1729655;82;21049;-65
2021/04/23 07:48:04;;;;;;;7.65;4.60;;;;;;;9.18;69.28;100236.05;1746381;82;21550;-62
2021/04/23 07:50:33;;;;;;;7.30;4.10;;;;;;;9.19;69.11;100229.93;1745031;82;21041;-60
2021/04/23 07:53:01;;;;;;;6.55;4.58;;;;;;;9.24;69.23;100235.72;1792531;79;21243;-59
2021/04/23 07:55:31;;;;;;;8.18;4.15;;;;;;;9.36;69.75;100239.05;1723296;83;21495;-59
2021/04/23 07:58:00;;;;;;;4.37;3.37;;;;;;;9.61;70.29;100240.45;1739301;82;21729;-59
2021/04/23 08:00:28;;;;;;;3.70;3.40;;;;;;;9.91;70.06;100238.95;1778993;79;21286;-60
2021/04/23 08:02:57;;;;;;;7.58;4.08;;;;;;;10.21;68.41;100231.83;1710542;83;21525;-61
2021/04/23 08:05:27;;;;;;;4.47;3.08;;;;;;;10.44;67.24;100231.47;1709126;83;21003;-62
2021/04/23 08:07:57;;;;;;;4.85;3.42;;;;;;;10.58;66.48;100230.75;1771586;79;21008;-62
2021/04/23 08:10:27;;;;;;;5.95;3.72;;;;;;;10.69;66.34;100241.45;1785113;79;22133;-61
2021/04/23 08:12:56;;;;;;;5.45;3.58;;;;;;;10.78;65.78;100246.17;1795365;78;22171;-62
2021/04/23 08:15:26;;;;;;;5.78;3.65;;;;;;;10.86;65.31;100250.48;1803090;78;21020;-62
2021/04/23 08:17:57;;;;;;;6.17;3.40;;;;;;;11.00;65.79;100255.80;1803387;79;21562;-63
2021/04/23 08:20:26;;;;;;;5.92;3.50;;;;;;;11.18;65.25;100251.36;1801976;79;21024;-61
2021/04/23 08:22:57;;;;;;;6.35;3.70;;;;;;;11.52;64.62;100248.16;1798148;79;21029;-61
2021/04/23 08:25:27;;;;;;;6.42;4.50;;;;;;;11.91;63.72;100239.84;1779910;79;21265;-60
2021/04/23 08:27:57;;;;;;;5.30;3.95;;;;;;;12.23;62.09;100249.22;1782860;79;20981;-65
2021/04/23 08:30:27;;;;;;;6.90;3.98;;;;;;;12.48;62.52;100246.42;1780913;79;21028;-62
2021/04/23 08:32:58;;;;;;;4.42;3.37;;;;;;;12.69;61.94;100249.89;1785426;79;21178;-63
2021/04/23 08:35:27;;;;;;;6.28;4.25;;;;;;;12.82;60.77;100244.73;1774503;79;21036;-61
2021/04/23 08:37:57;;;;;;;3.95;3.58;;;;;;;12.94;59.95;100245.75;1782772;79;21402;-61
2021/04/23 08:40:26;;;;;;;5.55;4.00;;;;;;;13.03;59.53;100242.09;1789325;79;21032;-61
2021/04/23 08:43:04;;;;;;;4.97;4.03;;;;;;;13.12;58.65;100242.45;1794255;79;21206;-70
2021/04/23 08:45:34;;;;;;;6.33;4.83;;;;;;;13.29;59.71;100252.23;1771639;79;21145;-60
2021/04/23 08:48:06;;;;;;;6.58;4.62;;;;;;;13.61;59.07;100249.30;1786373;79;21194;-67
2021/04/23 08:50:35;;;;;;;6.45;4.60;;;;;;;13.87;57.47;100247.61;1767029;79;21201;-63
2021/04/23 08:53:06;;;;;;;5.55;4.67;;;;;;;14.01;57.31;100248.34;1784895;79;21080;-62
2021/04/23 08:55:38;;;;;;;9.18;4.47;;;;;;;14.02;55.87;100247.41;1797385;79;21048;-66
2021/04/23 08:58:10;;;;;;;5.60;4.17;;;;;;;13.96;55.23;100244.38;1787306;79;21072;-62
2021/04/23 09:00:40;;;;;;;8.73;5.15;;;;;;;13.97;55.92;100250.83;1728540;81;21056;-60
2021/04/23 09:03:11;;;;;;;6.75;5.75;;;;;;;14.02;55.88;100246.09;1721608;83;22036;-61
2021/04/23 09:05:40;;;;;;;8.00;5.10;;;;;;;14.01;55.65;100248.81;1737815;82;20993;-65
2021/04/23 09:08:11;;;;;;;6.50;4.97;;;;;;;13.98;56.19;100244.66;1746612;81;21583;-60
2021/04/23 09:10:40;;;;;;;7.65;5.40;;;;;;;14.02;54.75;100241.33;1744621;82;20958;-61
2021/04/23 09:13:16;;;;;;;9.40;6.83;;;;;;;14.09;54.88;100237.36;1751189;82;20930;-61
2021/04/23 09:15:46;;;;;;;10.80;6.50;;;;;;;14.17;55.37;100235.07;1750566;81;20986;-61
2021/04/23 09:18:18;;;;;;;7.85;5.87;;;;;;;14.25;54.12;100228.01;1751492;82;21615;-60
2021/04/23 09:20:48;;;;;;;10.65;7.03;;;;;;;14.27;54.00;100234.81;1751647;82;21006;-63
2021/04/23 09:23:20;;;;;;;10.40;5.92;;;;;;;14.28;53.27;100227.33;1740875;82;21556;-67
2021/04/23 09:25:52;;;;;;;11.30;6.45;;;;;;;14.24;53.23;100225.86;1741118;82;21469;-62
2021/04/23 09:28:40;;;;;;;10.25;5.62;;;;;;;14.28;52.92;100227.80;1750345;82;21201;-58
2021/04/23 09:31:34;;;;;;;10.63;5.08;;;;;;;14.33;53.51;100233.56;1769441;81;21684;-61
2021/04/23 09:34:07;;;;;;;6.80;4.95;;;;;;;14.40;52.51;100220.38;1750905;82;21045;-62
2021/04/23 09:36:45;;;;;;;8.25;4.35;;;;;;;14.43;52.12;100224.61;1768679;81;21177;-62
2021/04/23 09:39:25;;;;;;;7.95;5.25;;;;;;;14.39;51.54;100227.91;1721556;83;21013;-61
2021/04/23 09:42:03;;;;;;;7.15;4.65;;;;;;;14.35;52.77;100223.35;1720728;83;22158;-60
2021/04/23 09:44:42;;;;;;;11.33;5.00;;;;;;;14.30;51.64;100221.52;1729932;80;21069;-60
2021/04/23 09:47:22;;;;;;;5.58;4.95;;;;;;;14.28;51.54;100226.02;1725182;82;21631;-60
2021/04/23 09:49:55;;;;;;;8.15;5.58;;;;;;;14.32;51.39;100226.17;1725454;82;21691;-63
2021/04/23 09:52:25;;;;;;;7.45;4.87;;;;;;;14.35;51.69;100218.11;1722354;83;21006;-60
2021/04/23 09:54:56;;;;;;;9.73;4.92;;;;;;;14.44;51.96;100214.50;1732780;82;21379;-61
2021/04/23 09:57:39;;;;;;;7.42;4.83;;;;;;;14.54;51.49;100212.92;1737007;82;21132;-65
2021/04/23 10:00:11;;;;;;;10.15;5.25;;;;;;;14.62;51.44;100220.63;1725177;82;21507;-59
2021/04/23 10:02:39;;;;;;;5.12;4.62;;;;;;;14.70;49.93;100216.16;1737535;82;20941;-60
2021/04/23 10:05:09;;;;;;;4.95;4.45;;;;;;;14.71;49.13;100218.30;1740049;82;21056;-64
2021/04/23 10:07:37;;;;;;;5.40;3.75;;;;;;;14.69;50.07;100215.80;1768278;81;21091;-63
2021/04/23 10:10:11;;;;;;;6.05;4.47;;;;;;;14.68;49.15;100209.71;1713860;82;21017;-60
2021/04/23 10:12:48;;;;;;;5.90;4.40;;;;;;;14.66;49.02;100210.29;1739166;82;20987;-61
2021/04/23 10:15:35;;;;;;;9.98;4.30;;;;;;;14.64;49.18;100216.58;1749676;80;20992;-61
2021/04/23 10:18:12;;;;;;;7.25;4.25;;;;;;;14.60;47.68;100208.09;1751412;82;21026;-62
2021/04/23 10:20:46;;;;;;;8.48;3.83;;;;;;;14.58;47.59;100211.77;1739061;82;21425;-59
2021/04/23 10:23:20;;;;;;;6.45;4.12;;;;;;;14.56;47.51;100202.70;1750646;82;21006;-59
2021/04/23 10:25:49;;;;;;;9.35;4.15;;;;;;;14.54;48.71;100207.68;1750675;82;21063;-62
2021/04/23 10:28:20;;;;;;;7.08;4.08;;;;;;;14.57;48.37;100209.62;1750644;82;20906;-63
2021/04/23 10:30:51;;;;;;;8.15;4.10;;;;;;;14.65;47.73;100202.06;1750753;82;20954;-59
2021/04/23 10:33:28;;;;;;;6.62;3.75;;;;;;;14.75;45.92;100210.13;1750705;82;21197;-60
2021/04/23 10:35:58;;;;;;;7.28;4.10;;;;;;;14.75;46.13;100213.22;1738681;81;21050;-62
2021/04/23 10:38:34;;;;;;;3.90;3.50;;;;;;;14.72;46.92;100212.12;1727643;81;20955;-59
2021/04/23 10:41:07;;;;;;;4.08;3.30;;;;;;;14.73;46.91;100211.17;1740477;81;21648;-59
2021/04/23 10:43:36;;;;;;;5.15;3.37;;;;;;;14.75;47.07;100211.91;1740658;82;20968;-60
2021/04/23 10:46:12;;;;;;;4.15;3.30;;;;;;;14.78;46.84;100212.53;1740407;82;21201;-60
2021/04/23 10:48:46;;;;;;;11.53;3.50;;;;;;;14.84;46.44;100219.09;1733895;82;21700;-64
2021/04/23 10:51:25;;;;;;;5.65;2.83;;;;;;;14.85;46.46;100216.36;1724164;83;21012;-60
2021/04/23 10:54:14;;;;;;;4.08;2.92;;;;;;;14.84;45.06;100217.78;1720591;82;20996;-60
2021/04/23 10:56:50;;;;;;;5.30;2.55;;;;;;;14.79;45.71;100210.75;1753297;81;21369;-60
2021/04/23 10:59:28;;;;;;;6.28;2.85;;;;;;;14.77;44.77;100211.33;1751487;81;21345;-61
2021/04/23 11:02:12;;;;;;;4.47;2.75;;;;;;;14.83;45.45;100213.48;1722827;82;21640;-64
2021/04/23 11:05:00;;;;;;;6.10;3.05;;;;;;;14.82;44.16;100215.27;1712735;82;20906;-60
2021/04/23 11:07:31;;;;;;;2.77;2.45;;;;;;;14.74;42.73;100215.47;1713134;82;21013;-60
2021/04/23 11:10:02;;;;;;;4.12;2.83;;;;;;;14.64;43.97;100204.79;1708463;82;21009;-58
2021/04/23 11:12:30;;;;;;;5.42;2.60;;;;;;;14.59;43.85;100209.52;1708023;84;21594;-61
2021/04/23 11:15:13;;;;;;;3.47;2.80;;;;;;;14.56;44.16;100209.25;1708717;83;21659;-60
2021/04/23 11:17:42;;;;;;;3.45;2.30;;;;;;;14.58;43.46;100205.22;1708652;83;21369;-58
2021/04/23 11:20:30;;;;;;;5.53;3.60;;;;;;;14.61;42.45;100202.38;1714892;82;21549;-61
2021/04/23 11:22:59;;;;;;;16.10;7.97;;;;;;;14.62;42.82;100189.17;1718423;82;20974;-63
2021/04/23 11:25:28;;;;;;;7.65;4.78;;;;;;;14.63;43.38;100184.77;1716423;82;21206;-59
2021/04/23 11:28:07;;;;;;;4.30;3.22;;;;;;;14.63;43.57;100193.94;1724792;81;20943;-61
2021/04/23 11:31:07;;;;;;;6.50;2.87;;;;;;;14.63;43.02;100199.19;1729185;81;21072;-69
2021/04/23 11:33:50;;;;;;;7.95;2.98;;;;;;;14.60;42.93;100198.92;1724632;82;21029;-63
2021/04/23 11:36:30;;;;;;;4.50;3.02;;;;;;;14.57;43.64;100195.20;1709212;83;20979;-68
2021/04/23 11:39:10;;;;;;;19.15;12.63;;;;;;;14.58;43.96;100189.02;1791309;79;22077;-63
2021/04/23 11:42:00;;;;;;;8.15;5.45;;;;;;;14.58;43.18;100190.80;1800114;79;21190;-61
2021/04/23 11:44:49;;;;;;;5.80;3.20;;;;;;;14.60;43.55;100190.22;1784490;79;20945;-60
2021/04/23 11:47:29;;;;;;;4.00;2.83;;;;;;;14.66;43.02;100190.63;1800788;79;20949;-60
2021/04/23 11:50:17;;;;;;;5.28;2.72;;;;;;;14.65;42.43;100186.34;1797983;79;21551;-59
2021/04/23 11:52:51;;;;;;;6.47;3.08;;;;;;;14.63;42.75;100182.14;1800573;79;22292;-61
2021/04/23 11:55:28;;;;;;;7.40;5.50;;;;;;;14.60;43.28;100174.50;1800847;79;20952;-60
2021/04/23 11:58:15;;;;;;;5.25;3.25;;;;;;;14.55;44.36;100169.58;1800448;79;21594;-60
2021/04/23 12:00:54;;;;;;;4.70;2.67;;;;;;;14.53;43.56;100168.02;1798556;79;21135;-64
2021/04/23 12:03:23;;;;;;;8.65;4.95;;;;;;;14.48;43.97;100160.47;1784605;79;21022;-60
2021/04/23 12:05:56;;;;;;;14.30;10.93;;;;;;;14.45;43.60;100165.08;1782136;80;23392;-63
2021/04/23 12:08:30;;;;;;;13.83;9.28;;;;;;;14.43;42.90;100161.26;1780464;78;21009;-59
2021/04/23 12:11:05;;;;;;;18.70;10.90;;;;;;;14.46;43.28;100164.98;1771358;79;21593;-60
2021/04/23 12:13:38;;;;;;;7.20;5.80;;;;;;;14.51;42.76;100162.03;1768275;80;21278;-59
2021/04/23 12:16:10;;;;;;;7.22;3.80;;;;;;;14.60;42.86;100162.70;1768690;81;21052;-67
2021/04/23 12:18:50;;;;;;;8.78;6.42;;;;;;;14.68;42.40;100159.91;1768998;79;21473;-60
2021/04/23 12:21:21;;;;;;;9.80;4.12;;;;;;;14.79;42.37;100156.53;1768897;79;21012;-60
2021/04/23 12:23:52;;;;;;;5.83;4.70;;;;;;;14.88;42.46;100140.12;1768331;79;21645;-60
2021/04/23 12:26:22;;;;;;;5.00;2.83;;;;;;;14.97;42.45;100139.93;1768604;81;21669;-60
2021/04/23 12:28:53;;;;;;;4.87;2.92;;;;;;;15.04;41.38;100136.39;1768665;81;21570;-61
2021/04/23 12:31:32;;;;;;;6.35;4.35;;;;;;;14.99;41.17;100134.10;1768699;79;21351;-61
2021/04/23 12:33:59;;;;;;;7.25;3.75;;;;;;;14.96;41.26;100131.70;1770424;79;21546;-60
2021/04/23 12:36:34;;;;;;;33.18;24.30;;;;;;;14.89;41.33;100129.16;1769089;81;21471;-59
2021/04/23 12:39:06;;;;;;;21.33;14.95;;;;;;;14.77;41.82;100126.13;1769243;81;21523;-61
2021/04/23 12:41:42;;;;;;;20.30;13.98;;;;;;;14.66;41.47;100126.42;1769289;81;21634;-61
2021/04/23 12:44:16;;;;;;;8.00;5.60;;;;;;;14.57;42.02;100128.85;1771580;79;21902;-58
2021/04/23 12:46:53;;;;;;;15.38;10.35;;;;;;;14.49;41.87;100129.86;1769127;81;21090;-59
2021/04/23 12:49:27;;;;;;;15.30;10.55;;;;;;;14.41;42.70;100125.16;1769287;79;21095;-60
2021/04/23 12:52:09;;;;;;;18.50;12.73;;;;;;;14.39;43.15;100117.05;1767865;81;21846;-62
2021/04/23 12:54:44;;;;;;;48.65;27.52;;;;;;;14.37;43.54;100113.22;1787594;79;21606;-60
2021/04/23 12:57:15;;;;;;;18.05;9.83;;;;;;;14.33;43.54;100106.52;1775262;79;21426;-59
2021/04/23 13:00:12;;;;;;;8.75;5.37;;;;;;;14.29;43.60;100099.82;1782949;79;21028;-59
2021/04/23 13:02:42;;;;;;;5.75;3.40;;;;;;;14.24;43.85;100101.92;1792681;79;20986;-63
2021/04/23 13:05:18;;;;;;;4.22;3.02;;;;;;;14.20;43.58;100097.84;1793409;79;20917;-59
2021/04/23 13:07:53;;;;;;;7.95;3.12;;;;;;;14.21;43.78;100098.20;1796947;79;21052;-60
2021/04/23 13:10:36;;;;;;;5.30;2.72;;;;;;;14.22;42.98;100098.09;1796471;79;21216;-59
2021/04/23 13:13:08;;;;;;;4.58;2.92;;;;;;;14.24;43.26;100092.28;1797481;79;21514;-62
2021/04/23 13:15:41;;;;;;;10.38;5.42;;;;;;;14.30;43.32;100089.70;1796784;79;21554;-60
2021/04/23 13:18:27;;;;;;;14.73;6.95;;;;;;;14.35;43.39;100086.30;1788003;79;21494;-59
2021/04/23 13:21:07;;;;;;;11.50;6.33;;;;;;;14.41;42.84;100091.10;1739645;82;21060;-60
2021/04/23 13:23:45;;;;;;;39.30;21.82;;;;;;;14.47;42.11;100075.42;1740679;82;21484;-60
2021/04/23 13:26:20;;;;;;;37.90;22.32;;;;;;;14.58;42.68;100084.20;1737944;82;21608;-62
2021/04/23 13:29:06;;;;;;;37.75;25.88;;;;;;;14.67;42.32;100074.84;1728321;82;21369;-60
2021/04/23 13:31:36;;;;;;;40.70;28.77;;;;;;;14.72;41.97;100079.28;1722498;82;21056;-59
2021/04/23 13:34:12;;;;;;;75.90;51.80;;;;;;;14.71;41.99;100078.08;1722508;82;21595;-60
2021/04/23 13:36:54;;;;;;;122.95;75.00;;;;;;;14.66;42.22;100079.24;1724570;82;21013;-62
2021/04/23 13:39:23;;;;;;;75.22;44.58;;;;;;;14.56;41.71;100080.84;1722550;82;21628;-59
2021/04/23 13:41:57;;;;;;;25.52;17.90;;;;;;;14.43;41.94;100081.83;1729234;82;21065;-61
2021/04/23 13:44:31;;;;;;;25.40;16.40;;;;;;;14.29;41.98;100083.63;1722364;83;20994;-60
2021/04/23 13:47:00;;;;;;;108.45;68.52;;;;;;;14.18;42.34;100084.85;1740699;82;20902;-59
2021/04/23 13:49:39;;;;;;;33.58;23.95;;;;;;;14.07;41.86;100087.38;1713297;82;22117;-60
2021/04/23 13:52:17;;;;;;;18.57;13.53;;;;;;;14.00;41.98;100088.27;1711108;83;21522;-60
2021/04/23 13:54:48;;;;;;;57.60;33.80;;;;;;;13.98;42.38;100086.26;1735720;82;21016;-60
2021/04/23 13:57:19;;;;;;;61.20;34.95;;;;;;;13.98;42.44;100083.64;1740591;82;21569;-63
